createdAt,value
2023-06-30T00:00:26.691Z,100231.94
2023-06-30T00:03:30.011Z,100226.87
2023-06-30T00:06:32.653Z,100225.62
2023-06-30T00:09:35.239Z,100232.12
2023-06-30T00:12:37.754Z,100239.25
2023-06-30T00:15:41.145Z,100234.16
2023-06-30T00:18:43.939Z,100233.41
2023-06-30T00:21:46.762Z,100232.66
2023-06-30T00:24:50.304Z,100226.16
2023-06-30T00:27:52.963Z,100224.75
2023-06-30T00:30:55.344Z,100223.22
2023-06-30T00:34:01.425Z,100219.28
2023-06-30T00:37:03.815Z,100222.91
2023-06-30T00:40:06.710Z,100220.50
2023-06-30T00:43:09.403Z,100216.28
2023-06-30T00:46:13.729Z,100220.84
2023-06-30T00:49:16.143Z,100219.22
2023-06-30T00:52:18.906Z,100222.97
2023-06-30T00:55:25.746Z,100219.69
2023-06-30T00:58:28.344Z,100213.59
2023-06-30T01:01:34.396Z,100212.47
2023-06-30T01:04:55.930Z,100211.16
2023-06-30T01:08:06.627Z,100214.69
2023-06-30T01:11:09.648Z,100211.50
2023-06-30T01:14:12.537Z,100214.31
2023-06-30T01:17:18.399Z,100208.22
2023-06-30T01:20:20.851Z,100206.69
2023-06-30T01:23:46.849Z,100202.72
2023-06-30T01:26:50.749Z,100209.03
2023-06-30T01:29:54.107Z,100205.75
2023-06-30T01:32:59.636Z,100204.06
2023-06-30T01:36:02.969Z,100204.16
2023-06-30T01:39:05.617Z,100202.53
2023-06-30T01:42:08.904Z,100197.31
2023-06-30T01:45:12.580Z,100203.56
2023-06-30T01:48:15.359Z,100197.72
2023-06-30T01:51:19.180Z,100195.19
2023-06-30T01:54:21.874Z,100193.69
2023-06-30T01:57:24.218Z,100191.41
2023-06-30T02:00:26.816Z,100196.63
2023-06-30T02:03:30.611Z,100195.12
2023-06-30T02:06:33.157Z,100194.38
2023-06-30T02:09:47.142Z,100198.00
2023-06-30T02:12:49.949Z,100193.63
2023-06-30T02:15:52.593Z,100194.62
2023-06-30T02:18:57.466Z,100195.53
2023-06-30T02:22:00.108Z,100188.78
2023-06-30T02:25:02.658Z,100195.81
2023-06-30T02:28:05.267Z,100189.13
2023-06-30T02:31:07.607Z,100198.78
2023-06-30T02:34:13.305Z,100189.37
2023-06-30T02:37:15.654Z,100188.63
2023-06-30T02:40:18.292Z,100185.34
2023-06-30T02:43:20.734Z,100183.72
2023-06-30T02:46:23.483Z,100182.03
2023-06-30T02:49:26.991Z,100176.97
2023-06-30T02:52:29.774Z,100173.41
2023-06-30T02:55:36.430Z,100183.13
2023-06-30T02:58:40.995Z,100186.66
2023-06-30T03:01:44.265Z,100183.28
2023-06-30T03:04:47.988Z,100180.34
2023-06-30T03:07:51.114Z,100179.25
2023-06-30T03:10:54.673Z,100178.38
2023-06-30T03:13:58.816Z,100185.41
2023-06-30T03:17:04.278Z,100188.09
2023-06-30T03:20:13.736Z,100191.56
2023-06-30T03:23:16.404Z,100182.63
2023-06-30T03:26:18.835Z,100184.31
2023-06-30T03:29:21.522Z,100191.06
2023-06-30T03:32:27.042Z,100192.78
2023-06-30T03:35:30.190Z,100190.97
2023-06-30T03:38:32.892Z,100188.69
2023-06-30T03:41:35.607Z,100198.50
2023-06-30T03:44:37.977Z,100189.37
2023-06-30T03:47:41.234Z,100187.19
2023-06-30T03:50:44.592Z,100186.81
2023-06-30T03:53:47.255Z,100176.00
2023-06-30T03:56:49.751Z,100172.84
2023-06-30T03:59:52.721Z,100181.12
2023-06-30T04:02:55.120Z,100186.91
2023-06-30T04:05:57.759Z,100183.03
2023-06-30T04:09:02.966Z,100181.59
2023-06-30T04:12:05.885Z,100189.75
2023-06-30T04:15:09.178Z,100183.97
2023-06-30T04:18:11.864Z,100181.94
2023-06-30T04:21:14.158Z,100186.16
2023-06-30T04:24:17.014Z,100188.50
2023-06-30T04:27:19.294Z,100189.53
2023-06-30T04:30:21.832Z,100185.44
2023-06-30T04:33:24.109Z,100189.75
2023-06-30T04:36:30.306Z,100189.66
2023-06-30T04:39:32.820Z,100186.16
2023-06-30T04:42:36.015Z,100181.44
2023-06-30T04:45:38.583Z,100183.34
2023-06-30T04:48:41.204Z,100179.09
2023-06-30T04:51:43.467Z,100175.66
2023-06-30T04:54:46.398Z,100169.28
2023-06-30T04:57:48.878Z,100166.94
2023-06-30T05:00:51.557Z,100169.25
2023-06-30T05:03:54.019Z,100167.56
2023-06-30T05:06:56.861Z,100161.91
2023-06-30T05:09:59.361Z,100164.56
2023-06-30T05:13:01.985Z,100164.44
2023-06-30T05:16:04.442Z,100163.28
2023-06-30T05:19:07.314Z,100170.97
2023-06-30T05:22:09.643Z,100168.19
2023-06-30T05:25:12.248Z,100166.06
2023-06-30T05:28:14.532Z,100166.41
2023-06-30T05:31:17.331Z,100165.91
2023-06-30T05:34:19.681Z,100172.16
2023-06-30T05:37:22.243Z,100165.56
2023-06-30T05:40:24.596Z,100168.97
2023-06-30T05:43:27.273Z,100166.03
2023-06-30T05:46:29.655Z,100173.75
2023-06-30T05:49:32.456Z,100175.34
2023-06-30T05:52:34.776Z,100175.59
2023-06-30T05:55:37.333Z,100182.59
2023-06-30T05:58:41.786Z,100181.84
2023-06-30T06:01:44.391Z,100173.44
2023-06-30T06:04:46.991Z,100171.72
2023-06-30T06:07:49.910Z,100173.84
2023-06-30T06:10:52.509Z,100171.28
2023-06-30T06:13:54.872Z,100178.59
2023-06-30T06:16:57.538Z,100177.69
2023-06-30T06:19:59.981Z,100173.09
2023-06-30T06:23:02.721Z,100182.50
2023-06-30T06:26:05.126Z,100180.41
2023-06-30T06:29:07.717Z,100172.97
2023-06-30T06:32:10.170Z,100174.25
2023-06-30T06:35:13.653Z,100168.12
2023-06-30T06:38:19.311Z,100174.31
2023-06-30T06:41:21.835Z,100172.28
2023-06-30T06:44:24.206Z,100174.38
2023-06-30T06:47:45.883Z,100170.53
2023-06-30T06:50:48.893Z,100170.06
2023-06-30T06:53:53.160Z,100163.53
2023-06-30T06:56:55.543Z,100164.59
2023-06-30T06:59:58.915Z,100166.91
2023-06-30T07:03:01.323Z,100176.91
2023-06-30T07:06:04.033Z,100164.62
2023-06-30T07:09:06.485Z,100175.97
2023-06-30T07:12:09.314Z,100175.03
2023-06-30T07:15:11.706Z,100169.28
2023-06-30T07:18:14.777Z,100178.12
2023-06-30T07:21:17.155Z,100170.97
2023-06-30T07:24:19.828Z,100167.97
2023-06-30T07:27:22.359Z,100167.38
2023-06-30T07:30:26.106Z,100161.69
2023-06-30T07:33:28.707Z,100159.63
2023-06-30T07:36:31.388Z,100161.81
2023-06-30T07:39:33.758Z,100163.50
2023-06-30T07:42:36.581Z,100157.16
2023-06-30T07:45:39.009Z,100154.53
2023-06-30T07:48:41.836Z,100150.47
2023-06-30T07:51:46.415Z,100151.22
2023-06-30T07:54:53.196Z,100149.75
2023-06-30T07:57:55.623Z,100148.53
2023-06-30T08:00:58.210Z,100139.56
2023-06-30T08:04:00.998Z,100136.34
2023-06-30T08:07:03.550Z,100138.19
2023-06-30T08:10:06.702Z,100127.16
2023-06-30T08:13:10.140Z,100127.28
2023-06-30T08:16:12.931Z,100129.03
2023-06-30T08:19:21.683Z,100127.72
2023-06-30T08:22:37.899Z,100121.47
2023-06-30T08:25:41.038Z,100118.94
2023-06-30T08:28:43.646Z,100112.38
2023-06-30T08:31:46.092Z,100109.47
2023-06-30T08:34:48.976Z,100119.41
2023-06-30T08:37:53.299Z,100122.66
2023-06-30T08:40:56.602Z,100113.53
2023-06-30T08:44:00.545Z,100110.72
2023-06-30T08:47:03.979Z,100111.06
2023-06-30T08:50:07.605Z,100103.34
2023-06-30T08:53:10.617Z,100103.59
2023-06-30T08:56:14.105Z,100111.28
2023-06-30T08:59:16.891Z,100101.75
2023-06-30T09:02:19.675Z,100103.91
2023-06-30T09:05:24.783Z,100106.13
2023-06-30T09:08:36.905Z,100102.06
2023-06-30T09:11:40.229Z,100102.63
2023-06-30T09:14:45.797Z,100090.41
2023-06-30T09:17:48.763Z,100099.19
2023-06-30T09:20:51.218Z,100086.97
2023-06-30T09:23:53.951Z,100085.31
2023-06-30T09:26:56.495Z,100083.47
2023-06-30T09:29:59.032Z,100074.44
2023-06-30T09:33:01.950Z,100072.22
2023-06-30T09:36:04.975Z,100054.09
2023-06-30T09:39:08.997Z,100058.03
2023-06-30T09:42:22.178Z,100055.03
2023-06-30T09:45:24.450Z,100045.28
2023-06-30T09:48:39.682Z,100039.84
2023-06-30T09:51:43.948Z,100037.72
2023-06-30T09:54:46.608Z,100028.69
2023-06-30T09:57:49.038Z,100027.75
2023-06-30T10:00:52.598Z,100033.66
2023-06-30T10:03:55.942Z,100031.72
2023-06-30T10:07:03.123Z,100032.12
2023-06-30T10:10:06.627Z,100032.47
2023-06-30T10:13:12.494Z,100036.38
2023-06-30T10:16:17.601Z,100038.47
2023-06-30T10:19:20.436Z,100033.28
2023-06-30T10:22:23.160Z,100026.13
2023-06-30T10:25:26.297Z,100035.62
2023-06-30T10:28:29.283Z,100031.78
2023-06-30T10:31:33.225Z,100032.44
2023-06-30T10:34:36.994Z,100024.34
2023-06-30T10:37:39.363Z,100028.31
2023-06-30T10:40:42.050Z,100026.16
2023-06-30T10:44:02.752Z,100017.09
2023-06-30T10:47:05.336Z,100020.34
2023-06-30T10:50:14.677Z,100023.66
2023-06-30T10:53:18.848Z,100009.81
2023-06-30T10:56:23.082Z,100012.53
2023-06-30T10:59:25.737Z,100013.97
2023-06-30T11:02:30.706Z,100002.13
2023-06-30T11:05:34.241Z,100004.22
2023-06-30T11:08:37.777Z,99996.34
2023-06-30T11:11:49.961Z,100002.34
2023-06-30T11:15:02.548Z,99993.78
2023-06-30T11:18:20.492Z,99984.25
2023-06-30T11:21:22.790Z,99980.56
2023-06-30T11:24:27.471Z,99981.81
2023-06-30T11:27:33.176Z,99971.44
2023-06-30T11:30:38.425Z,99970.59
2023-06-30T11:33:41.728Z,99967.62
2023-06-30T11:36:44.413Z,99957.28
2023-06-30T11:39:53.805Z,99966.84
2023-06-30T11:42:56.511Z,99953.41
2023-06-30T11:46:03.177Z,99961.03
2023-06-30T11:49:06.093Z,99953.56
2023-06-30T11:52:08.669Z,99954.59
2023-06-30T11:55:12.495Z,99944.12
2023-06-30T11:58:18.468Z,99945.59
2023-06-30T12:01:21.532Z,99939.72
2023-06-30T12:04:34.263Z,99939.97
2023-06-30T12:07:36.675Z,99935.44
2023-06-30T12:10:39.872Z,99937.22
2023-06-30T12:13:43.263Z,99928.69
2023-06-30T12:16:49.830Z,99924.56
2023-06-30T12:19:52.381Z,99919.44
2023-06-30T12:22:55.032Z,99912.72
2023-06-30T12:25:57.979Z,99912.72
2023-06-30T12:29:08.992Z,99907.81
2023-06-30T12:32:15.514Z,99907.44
2023-06-30T12:35:27.742Z,99902.78
2023-06-30T12:38:30.573Z,99911.13
2023-06-30T12:41:33.279Z,99907.03
2023-06-30T12:44:35.720Z,99899.78
2023-06-30T12:47:38.465Z,99895.56
2023-06-30T12:50:40.769Z,99891.88
2023-06-30T12:53:43.391Z,99881.69
2023-06-30T12:56:45.673Z,99889.53
2023-06-30T12:59:48.306Z,99889.06
2023-06-30T13:02:50.743Z,99881.75
2023-06-30T13:05:53.636Z,99882.06
2023-06-30T13:08:55.983Z,99884.16
2023-06-30T13:11:59.056Z,99872.03
2023-06-30T13:15:01.522Z,99865.34
2023-06-30T13:18:04.626Z,99875.12
2023-06-30T13:21:08.422Z,99862.06
2023-06-30T13:24:12.257Z,99862.88
2023-06-30T13:27:14.641Z,99855.28
2023-06-30T13:30:17.306Z,99856.25
2023-06-30T13:33:20.690Z,99849.03
2023-06-30T13:36:26.002Z,99846.53
2023-06-30T13:39:29.699Z,99838.84
2023-06-30T13:42:32.741Z,99839.53
2023-06-30T13:45:35.082Z,99830.94
2023-06-30T13:48:39.627Z,99829.16
2023-06-30T13:51:43.223Z,99830.66
2023-06-30T13:54:45.962Z,99822.78
2023-06-30T13:57:48.363Z,99819.25
2023-06-30T14:00:51.203Z,99808.00
2023-06-30T14:03:53.922Z,99809.16
2023-06-30T14:06:56.254Z,99802.63
2023-06-30T14:09:59.470Z,99805.88
2023-06-30T14:13:01.821Z,99796.72
2023-06-30T14:16:04.730Z,99798.47
2023-06-30T14:19:07.824Z,99790.38
2023-06-30T14:22:10.346Z,99773.78
2023-06-30T14:25:22.927Z,99779.03
2023-06-30T14:28:25.621Z,99773.88
2023-06-30T14:31:27.989Z,99760.66
2023-06-30T14:34:30.958Z,99760.00
2023-06-30T14:37:33.284Z,99758.09
2023-06-30T14:40:36.000Z,99751.69
2023-06-30T14:43:38.290Z,99744.22
2023-06-30T14:46:41.041Z,99742.28
2023-06-30T14:49:43.375Z,99748.34
2023-06-30T14:52:46.677Z,99739.72
2023-06-30T14:55:49.051Z,99734.06
2023-06-30T14:58:51.826Z,99728.91
2023-06-30T15:01:54.194Z,99715.03
2023-06-30T15:04:57.011Z,99719.28
2023-06-30T15:07:59.588Z,99712.16
2023-06-30T15:11:02.470Z,99715.94
2023-06-30T15:14:04.700Z,99707.22
2023-06-30T15:17:07.372Z,99706.53
2023-06-30T15:20:09.783Z,99703.97
2023-06-30T15:23:12.324Z,99701.66
2023-06-30T15:26:14.676Z,99707.53
2023-06-30T15:29:17.246Z,99704.75
2023-06-30T15:32:19.846Z,99697.72
2023-06-30T15:35:23.345Z,99698.47
2023-06-30T15:38:25.646Z,99689.28
2023-06-30T15:41:28.282Z,99683.88
2023-06-30T15:44:30.602Z,99683.22
2023-06-30T15:47:33.282Z,99681.69
2023-06-30T15:50:36.995Z,99677.88
2023-06-30T15:53:39.799Z,99671.81
2023-06-30T15:56:42.112Z,99677.06
2023-06-30T15:59:44.700Z,99683.31
2023-06-30T16:02:47.194Z,99679.25
2023-06-30T16:05:50.269Z,99662.25
2023-06-30T16:08:53.068Z,99665.69
2023-06-30T16:11:55.754Z,99661.47
2023-06-30T16:14:58.166Z,99657.25
2023-06-30T16:18:00.842Z,99666.56
2023-06-30T16:21:03.620Z,99661.19
2023-06-30T16:24:06.455Z,99654.44
2023-06-30T16:27:08.790Z,99656.38
2023-06-30T16:30:22.756Z,99658.78
2023-06-30T16:33:25.447Z,99653.97
2023-06-30T16:36:28.153Z,99650.94
2023-06-30T16:39:30.575Z,99650.84
2023-06-30T16:42:33.135Z,99651.56
2023-06-30T16:45:36.188Z,99635.78
2023-06-30T16:48:38.813Z,99636.25
2023-06-30T16:51:42.742Z,99636.78
2023-06-30T16:54:45.303Z,99636.41
2023-06-30T16:57:48.803Z,99632.91
2023-06-30T17:00:52.199Z,99638.13
2023-06-30T17:03:54.561Z,99640.88
2023-06-30T17:06:57.146Z,99633.28
2023-06-30T17:09:59.478Z,99636.09
2023-06-30T17:13:04.405Z,99641.19
2023-06-30T17:16:06.839Z,99641.94
2023-06-30T17:19:09.471Z,99645.03
2023-06-30T17:22:11.935Z,99649.91
2023-06-30T17:25:14.544Z,99645.75
2023-06-30T17:28:17.201Z,99644.63
2023-06-30T17:31:20.071Z,99649.38
2023-06-30T17:34:22.417Z,99649.91
2023-06-30T17:37:25.013Z,99646.06
2023-06-30T17:40:27.334Z,99645.59
2023-06-30T17:43:29.950Z,99644.59
2023-06-30T17:46:32.370Z,99641.44
2023-06-30T17:49:35.116Z,99645.19
2023-06-30T17:52:37.421Z,99647.19
2023-06-30T17:55:40.134Z,99642.22
2023-06-30T17:58:42.456Z,99643.09
2023-06-30T18:01:45.655Z,99639.25
2023-06-30T18:04:48.523Z,99633.44
2023-06-30T18:07:50.897Z,99633.94
2023-06-30T18:11:08.121Z,99639.62
2023-06-30T18:14:11.642Z,99632.78
2023-06-30T18:17:16.316Z,99630.16
2023-06-30T18:20:18.852Z,99639.28
2023-06-30T18:23:21.464Z,99630.94
2023-06-30T18:26:23.747Z,99636.91
2023-06-30T18:29:27.028Z,99646.53
2023-06-30T18:32:31.229Z,99648.84
2023-06-30T18:35:33.993Z,99647.94
2023-06-30T18:38:36.336Z,99650.22
2023-06-30T18:41:39.315Z,99652.34
2023-06-30T18:44:41.741Z,99654.59
2023-06-30T18:47:46.535Z,99653.34
2023-06-30T18:50:49.001Z,99652.78
2023-06-30T18:53:51.725Z,99650.25
2023-06-30T18:56:54.089Z,99662.94
2023-06-30T18:59:56.762Z,99663.88
2023-06-30T19:02:59.183Z,99659.47
2023-06-30T19:06:02.670Z,99663.41
2023-06-30T19:09:10.385Z,99670.97
2023-06-30T19:12:12.988Z,99676.19
2023-06-30T19:15:15.334Z,99680.16
2023-06-30T19:18:20.677Z,99683.34
2023-06-30T19:21:23.005Z,99686.19
2023-06-30T19:24:25.608Z,99680.19
2023-06-30T19:27:27.986Z,99686.75
2023-06-30T19:30:30.722Z,99689.34
2023-06-30T19:33:35.352Z,99687.72
2023-06-30T19:36:38.026Z,99687.94
2023-06-30T19:39:42.551Z,99684.72
2023-06-30T19:42:45.261Z,99682.41
2023-06-30T19:45:47.701Z,99684.81
2023-06-30T19:48:50.703Z,99687.59
2023-06-30T19:51:53.060Z,99684.00
2023-06-30T19:54:55.759Z,99685.41
2023-06-30T19:57:58.141Z,99687.94
2023-06-30T20:01:00.865Z,99677.91
2023-06-30T20:04:03.568Z,99687.44
2023-06-30T20:07:08.638Z,99689.66
2023-06-30T20:10:12.108Z,99691.22
2023-06-30T20:13:14.355Z,99686.22
2023-06-30T20:16:17.119Z,99685.81
2023-06-30T20:19:19.438Z,99690.72
2023-06-30T20:22:22.152Z,99693.22
2023-06-30T20:25:24.788Z,99701.06
2023-06-30T20:28:27.533Z,99699.81
2023-06-30T20:31:30.003Z,99693.41
2023-06-30T20:34:32.717Z,99698.72
2023-06-30T20:37:35.057Z,99703.03
2023-06-30T20:40:38.082Z,99701.59
2023-06-30T20:43:40.457Z,99704.81
2023-06-30T20:46:43.521Z,99698.41
2023-06-30T20:49:45.962Z,99702.31
2023-06-30T20:52:48.956Z,99707.19
2023-06-30T20:55:51.322Z,99698.97
2023-06-30T20:58:55.676Z,99710.94
2023-06-30T21:01:58.419Z,99701.47
2023-06-30T21:05:01.275Z,99705.91
2023-06-30T21:08:04.500Z,99709.13
2023-06-30T21:11:07.232Z,99708.56
2023-06-30T21:14:09.578Z,99708.69
2023-06-30T21:17:12.195Z,99714.66
2023-06-30T21:20:14.541Z,99715.06
2023-06-30T21:23:17.165Z,99712.25
2023-06-30T21:26:19.499Z,99707.06
2023-06-30T21:29:22.230Z,99702.56
2023-06-30T21:32:24.714Z,99704.94
2023-06-30T21:35:27.402Z,99702.41
2023-06-30T21:38:29.839Z,99698.63
2023-06-30T21:41:32.651Z,99700.12
2023-06-30T21:44:35.081Z,99698.03
2023-06-30T21:47:37.787Z,99693.97
2023-06-30T21:50:40.943Z,99693.66
2023-06-30T21:53:43.613Z,99697.84
2023-06-30T21:56:46.172Z,99696.69
2023-06-30T21:59:48.791Z,99689.44
2023-06-30T22:02:54.693Z,99681.06
2023-06-30T22:05:57.407Z,99689.50
2023-06-30T22:09:03.663Z,99690.97
2023-06-30T22:12:14.490Z,99690.78
2023-06-30T22:15:16.952Z,99684.75
2023-06-30T22:18:19.538Z,99695.81
2023-06-30T22:21:21.941Z,99699.28
2023-06-30T22:24:24.921Z,99699.69
2023-06-30T22:27:27.258Z,99691.53
2023-06-30T22:30:30.146Z,99697.59
2023-06-30T22:33:32.430Z,99691.16
2023-06-30T22:36:35.307Z,99696.09
2023-06-30T22:39:37.625Z,99693.00
2023-06-30T22:42:40.281Z,99684.62
2023-06-30T22:45:44.552Z,99682.34
2023-06-30T22:48:47.164Z,99679.16
2023-06-30T22:51:49.504Z,99686.22
2023-06-30T22:54:52.177Z,99680.44
2023-06-30T22:57:54.509Z,99682.75
2023-06-30T23:00:57.563Z,99678.56
2023-06-30T23:03:59.978Z,99675.44
2023-06-30T23:07:02.615Z,99675.69
2023-06-30T23:10:05.280Z,99679.53
2023-06-30T23:13:07.940Z,99673.94
2023-06-30T23:16:10.317Z,99679.78
2023-06-30T23:19:15.102Z,99672.84
2023-06-30T23:22:18.304Z,99673.34
2023-06-30T23:25:24.199Z,99672.16
2023-06-30T23:28:29.119Z,99677.22
2023-06-30T23:31:35.075Z,99674.56
2023-06-30T23:34:38.897Z,99677.69
2023-06-30T23:37:41.604Z,99674.47
2023-06-30T23:40:45.081Z,99678.28
2023-06-30T23:43:48.126Z,99672.44
2023-06-30T23:46:50.395Z,99673.66
2023-06-30T23:49:53.240Z,99673.03
2023-06-30T23:52:55.535Z,99669.56
2023-06-30T23:55:58.267Z,99677.25
2023-06-30T23:59:00.656Z,99676.53
